Time;durP1;ratioP1;P1;durP2;ratioP2;P2;SDS_P1;SDS_P2;PMS_P1;PMS_P2;Temp;Humidity;BMP_temperature;BMP_pressure;BME280_temperature;BME280_humidity;BME280_pressure;Samples;Min_cycle;Max_cycle;Signal;HPM_P1;HPM_P2
2022/01/17 00:01:34;;;;;;;;;;;3.20;99.90;;;;;;5076266;28;19909;-48
2022/01/17 00:04:00;;;;;;;;;;;3.10;99.90;;;;;;5075848;28;19908;-45
2022/01/17 00:06:25;;;;;;;;;;;3.10;99.90;;;;;;5076158;28;19931;-44
2022/01/17 00:08:51;;;;;;;;;;;3.10;99.90;;;;;;5076038;28;20400;-45
2022/01/17 00:11:18;;;;;;;;;;;3.10;99.90;;;;;;5076081;28;19916;-46
2022/01/17 00:13:44;;;;;;;;;;;3.10;99.90;;;;;;5076091;28;19916;-43
2022/01/17 00:21:01;;;;;;;;;;;3.10;99.90;;;;;;5075888;28;19908;-47
2022/01/17 00:23:27;;;;;;;;;;;3.10;99.90;;;;;;5075869;28;19920;-45
2022/01/17 00:25:52;;;;;;;;;;;3.20;99.90;;;;;;5075598;28;19908;-47
2022/01/17 00:28:18;;;;;;;;;;;3.10;99.90;;;;;;5075527;28;19908;-45
2022/01/17 00:30:43;;;;;;;;;;;3.10;99.90;;;;;;5075395;28;20377;-47
2022/01/17 00:33:09;;;;;;;;;;;3.10;99.90;;;;;;5075260;28;20420;-44
2022/01/17 00:35:35;;;;;;;;;;;3.10;99.90;;;;;;5075220;28;19912;-43
2022/01/17 00:38:00;;;;;;;;;;;3.20;99.90;;;;;;5057641;28;20027;-44
2022/01/17 00:40:26;;;;;;;;;;;3.10;99.90;;;;;;5074847;28;20382;-43
2022/01/17 00:42:51;;;;;;;;;;;3.10;99.90;;;;;;5075165;28;19915;-44
2022/01/17 00:45:24;;;;;;;;;;;3.20;99.90;;;;;;5074952;28;19909;-46
2022/01/17 00:47:50;;;;;;;;;;;3.10;99.90;;;;;;5067641;28;20279;-46
2022/01/17 00:50:16;;;;;;;;;;;3.20;99.90;;;;;;5055318;28;19994;-44
2022/01/17 00:52:41;;;;;;;;;;;3.20;99.90;;;;;;5068398;28;20336;-45
2022/01/17 00:55:07;;;;;;;;;;;3.10;99.90;;;;;;5075119;28;19912;-44
2022/01/17 00:57:33;;;;;;;;;;;3.10;99.90;;;;;;5056856;28;19916;-45
2022/01/17 00:59:58;;;;;;;;;;;3.10;99.90;;;;;;5056900;28;19915;-45
2022/01/17 01:02:24;;;;;;;;;;;3.10;99.90;;;;;;5075025;28;19916;-47
2022/01/17 01:04:49;;;;;;;;;;;3.10;99.90;;;;;;5074555;28;20360;-44
2022/01/17 01:07:15;;;;;;;;;;;3.10;99.90;;;;;;5074781;28;19908;-45
2022/01/17 01:10:04;;;;;;;;;;;3.10;99.90;;;;;;5074997;28;19913;-45
2022/01/17 01:12:28;;;;;;;;;;;3.10;99.90;;;;;;5074574;28;19912;-46
2022/01/17 01:14:54;;;;;;;;;;;3.10;99.90;;;;;;5074867;28;19942;-45
2022/01/17 01:17:32;;;;;;;;;;;3.10;99.90;;;;;;5074603;28;19930;-44
2022/01/17 01:20:14;;;;;;;;;;;3.00;99.90;;;;;;5074120;28;19966;-45
2022/01/17 01:28:08;;;;;;;;;;;3.10;99.90;;;;;;5054464;28;20271;-46
2022/01/17 01:30:39;;;;;;;;;;;3.10;99.90;;;;;;5054322;28;19913;-45
2022/01/17 01:33:04;;;;;;;;;;;3.10;99.90;;;;;;5054768;28;19920;-46
2022/01/17 01:35:32;;;;;;;;;;;3.20;99.90;;;;;;5054297;28;19912;-43
2022/01/17 01:38:00;;;;;;;;;;;3.10;99.90;;;;;;5054854;28;19909;-43
2022/01/17 01:40:25;;;;;;;;;;;3.10;99.90;;;;;;5054506;28;19913;-43
2022/01/17 01:42:52;;;;;;;;;;;3.10;99.90;;;;;;5054733;28;20015;-44
2022/01/17 01:45:19;;;;;;;;;;;3.20;99.90;;;;;;5058094;28;19952;-44
2022/01/17 01:47:45;;;;;;;;;;;3.20;99.90;;;;;;5068767;28;19908;-43
2022/01/17 01:50:11;;;;;;;;;;;3.20;99.90;;;;;;5087973;28;19914;-44
2022/01/17 01:52:37;;;;;;;;;;;3.20;99.90;;;;;;5077877;28;19918;-45
2022/01/17 01:55:03;;;;;;;;;;;3.20;99.90;;;;;;5093781;28;19904;-44
2022/01/17 01:57:28;;;;;;;;;;;3.20;99.90;;;;;;5094185;28;20290;-44
2022/01/17 01:59:54;;;;;;;;;;;3.20;99.90;;;;;;5088269;28;19991;-45
2022/01/17 02:02:20;;;;;;;;;;;3.10;99.90;;;;;;5060985;28;20355;-44
2022/01/17 02:04:45;;;;;;;;;;;3.20;99.90;;;;;;5055815;28;19917;-46
2022/01/17 02:07:11;;;;;;;;;;;3.20;99.90;;;;;;5059251;28;19910;-44
2022/01/17 02:09:37;;;;;;;;;;;3.30;99.90;;;;;;5055677;28;19935;-45
2022/01/17 02:12:03;;;;;;;;;;;3.30;99.90;;;;;;5052772;28;19909;-46
2022/01/17 02:14:29;;;;;;;;;;;3.30;99.90;;;;;;5056645;28;20362;-45
2022/01/17 02:16:54;;;;;;;;;;;3.30;99.90;;;;;;5053392;28;19970;-45
2022/01/17 02:19:24;;;;;;;;;;;3.30;99.90;;;;;;5054088;28;19905;-45
2022/01/17 02:21:50;;;;;;;;;;;3.30;99.90;;;;;;5062034;28;19912;-44
2022/01/17 02:24:18;;;;;;;;;;;3.20;99.90;;;;;;5073317;28;20404;-43
2022/01/17 02:26:44;;;;;;;;;;;3.20;99.90;;;;;;5056519;28;20408;-44
2022/01/17 02:29:10;;;;;;;;;;;3.20;99.90;;;;;;5053796;28;19915;-46
2022/01/17 02:31:35;;;;;;;;;;;3.30;99.90;;;;;;5054000;28;19991;-44
2022/01/17 02:34:03;;;;;;;;;;;3.30;99.90;;;;;;5053947;28;19951;-49
2022/01/17 02:36:29;;;;;;;;;;;3.30;99.90;;;;;;5061826;28;19919;-45
2022/01/17 02:38:54;;;;;;;;;;;3.20;99.90;;;;;;5063239;28;19908;-46
2022/01/17 02:41:20;;;;;;;;;;;3.30;99.90;;;;;;5053830;28;19915;-45
2022/01/17 02:43:47;;;;;;;;;;;3.30;99.90;;;;;;5070159;28;19992;-44
2022/01/17 02:48:39;;;;;;;;;;;3.30;99.90;;;;;;5073035;28;20377;-44
2022/01/17 02:51:05;;;;;;;;;;;3.30;99.90;;;;;;5071997;28;20340;-43
2022/01/17 02:53:31;;;;;;;;;;;3.30;99.90;;;;;;5072515;28;19913;-45
2022/01/17 02:55:57;;;;;;;;;;;3.30;99.90;;;;;;5072126;28;19913;-45
2022/01/17 02:58:25;;;;;;;;;;;3.30;99.90;;;;;;5072077;28;20314;-47
2022/01/17 03:00:52;;;;;;;;;;;3.20;99.90;;;;;;5073189;28;19916;-44
2022/01/17 03:03:18;;;;;;;;;;;3.20;99.90;;;;;;5073892;28;19951;-46
2022/01/17 03:05:45;;;;;;;;;;;3.10;99.90;;;;;;5073562;28;20009;-44
2022/01/17 03:08:10;;;;;;;;;;;3.20;99.90;;;;;;5073235;28;19955;-46
2022/01/17 03:10:43;;;;;;;;;;;3.10;99.90;;;;;;5073426;28;20378;-44
2022/01/17 03:13:12;;;;;;;;;;;3.10;99.90;;;;;;5073891;28;19923;-44
2022/01/17 03:15:38;;;;;;;;;;;3.20;99.90;;;;;;5073440;28;19916;-44
2022/01/17 03:18:04;;;;;;;;;;;3.10;99.90;;;;;;5073483;28;19909;-44
2022/01/17 03:20:30;;;;;;;;;;;3.10;99.90;;;;;;5073092;28;20378;-45
2022/01/17 03:22:56;;;;;;;;;;;3.00;99.90;;;;;;5075778;28;19920;-47
2022/01/17 03:25:21;;;;;;;;;;;3.10;99.90;;;;;;5077011;28;20390;-44
2022/01/17 03:27:47;;;;;;;;;;;3.00;99.90;;;;;;5076690;28;20347;-43
2022/01/17 03:30:12;;;;;;;;;;;3.00;99.90;;;;;;5076843;28;19913;-43
2022/01/17 03:32:38;;;;;;;;;;;3.00;99.90;;;;;;5076648;28;19913;-49
2022/01/17 03:35:04;;;;;;;;;;;3.00;99.90;;;;;;5076815;28;19909;-45
2022/01/17 03:37:29;;;;;;;;;;;3.10;99.90;;;;;;5076830;28;19909;-46
2022/01/17 03:39:55;;;;;;;;;;;3.00;99.90;;;;;;5076785;28;20262;-44
2022/01/17 03:42:22;;;;;;;;;;;3.00;99.90;;;;;;5076422;28;19909;-43
2022/01/17 03:44:47;;;;;;;;;;;3.00;99.90;;;;;;5076631;28;19947;-46
2022/01/17 03:47:13;;;;;;;;;;;3.00;99.90;;;;;;5076365;28;19909;-43
2022/01/17 03:49:38;;;;;;;;;;;3.00;99.90;;;;;;5058507;28;19913;-43
2022/01/17 03:52:04;;;;;;;;;;;3.00;99.90;;;;;;5076221;28;19912;-44
2022/01/17 03:54:31;;;;;;;;;;;3.00;99.90;;;;;;5076468;28;19908;-44
2022/01/17 03:56:57;;;;;;;;;;;2.90;99.90;;;;;;5076448;28;19912;-47
2022/01/17 03:59:23;;;;;;;;;;;2.90;99.90;;;;;;5076350;28;19954;-44
2022/01/17 04:01:49;;;;;;;;;;;2.80;99.90;;;;;;5076084;28;19908;-44
2022/01/17 04:04:14;;;;;;;;;;;2.90;99.90;;;;;;5076259;28;19909;-44
2022/01/17 04:06:40;;;;;;;;;;;2.90;99.90;;;;;;5076327;28;20351;-45
2022/01/17 04:09:05;;;;;;;;;;;2.90;99.90;;;;;;5076354;28;19920;-44
2022/01/17 04:11:31;;;;;;;;;;;3.00;99.90;;;;;;5076464;28;19948;-45
2022/01/17 04:13:56;;;;;;;;;;;3.00;99.90;;;;;;5075805;28;19909;-46
2022/01/17 04:16:22;;;;;;;;;;;3.10;99.90;;;;;;5076007;28;20339;-45
2022/01/17 04:18:47;;;;;;;;;;;3.00;99.90;;;;;;5075911;28;20339;-45
2022/01/17 04:21:13;;;;;;;;;;;3.00;99.90;;;;;;5075694;28;19915;-45
2022/01/17 04:23:39;;;;;;;;;;;2.90;99.90;;;;;;5075502;28;19974;-46
2022/01/17 04:26:04;;;;;;;;;;;2.80;99.90;;;;;;5058066;28;20342;-44
2022/01/17 04:28:30;;;;;;;;;;;2.90;99.90;;;;;;5075353;28;20043;-46
2022/01/17 04:30:56;;;;;;;;;;;2.90;99.90;;;;;;5075486;28;19916;-45
2022/01/17 04:33:22;;;;;;;;;;;2.90;99.90;;;;;;5075027;28;19934;-46
2022/01/17 04:35:47;;;;;;;;;;;2.80;99.90;;;;;;5075672;28;19908;-44
2022/01/17 04:38:16;;;;;;;;;;;2.90;99.90;;;;;;5057693;28;19909;-44
2022/01/17 04:40:44;;;;;;;;;;;2.90;99.90;;;;;;5057749;28;19909;-44
2022/01/17 04:43:19;;;;;;;;;;;2.90;99.90;;;;;;5075208;28;20346;-45
2022/01/17 04:45:45;;;;;;;;;;;2.80;99.90;;;;;;5075569;28;19992;-46
2022/01/17 04:48:11;;;;;;;;;;;2.90;99.90;;;;;;5075338;28;19908;-48
2022/01/17 04:50:37;;;;;;;;;;;3.00;99.90;;;;;;5074941;28;19920;-48
2022/01/17 04:53:03;;;;;;;;;;;3.00;99.90;;;;;;5075093;28;19916;-48
2022/01/17 04:55:28;;;;;;;;;;;3.00;99.90;;;;;;5075148;28;19909;-45
2022/01/17 04:57:56;;;;;;;;;;;3.10;99.90;;;;;;5057248;28;20000;-45
2022/01/17 05:00:22;;;;;;;;;;;3.10;99.90;;;;;;5075079;28;19908;-45
2022/01/17 05:02:48;;;;;;;;;;;3.10;99.90;;;;;;5074962;28;19940;-46
2022/01/17 05:05:14;;;;;;;;;;;3.20;99.90;;;;;;5074837;28;19934;-44
2022/01/17 05:07:40;;;;;;;;;;;3.10;99.90;;;;;;5074859;28;20013;-45
2022/01/17 05:10:07;;;;;;;;;;;3.10;99.90;;;;;;5074734;28;19919;-45
2022/01/17 05:12:33;;;;;;;;;;;3.10;99.90;;;;;;5074789;28;19982;-48
2022/01/17 05:14:59;;;;;;;;;;;3.10;99.90;;;;;;5074372;28;20317;-49
2022/01/17 05:19:58;;;;;;;;;;;3.20;99.90;;;;;;5074686;28;19909;-47
2022/01/17 05:22:26;;;;;;;;;;;3.20;99.90;;;;;;5074341;28;19920;-46
2022/01/17 05:24:52;;;;;;;;;;;3.20;99.90;;;;;;5074583;28;19908;-46
2022/01/17 05:27:17;;;;;;;;;;;3.20;99.90;;;;;;5074519;28;19995;-48
2022/01/17 05:29:43;;;;;;;;;;;3.20;99.90;;;;;;5074378;28;20014;-45
2022/01/17 05:32:08;;;;;;;;;;;3.20;99.90;;;;;;5056710;28;19966;-46
2022/01/17 05:34:34;;;;;;;;;;;3.20;99.90;;;;;;5074011;28;19915;-46
2022/01/17 05:37:03;;;;;;;;;;;3.30;99.90;;;;;;5074423;28;19909;-47
2022/01/17 05:39:29;;;;;;;;;;;3.30;99.90;;;;;;5073978;28;19951;-45
2022/01/17 05:41:54;;;;;;;;;;;3.20;99.90;;;;;;5074265;28;19915;-45
2022/01/17 05:44:20;;;;;;;;;;;3.20;99.90;;;;;;5074056;28;19916;-46
2022/01/17 05:46:45;;;;;;;;;;;3.20;99.90;;;;;;5073357;28;19916;-47
2022/01/17 05:49:11;;;;;;;;;;;3.30;99.90;;;;;;5074117;28;19920;-44
2022/01/17 05:51:36;;;;;;;;;;;3.30;99.90;;;;;;5074203;28;19916;-44
2022/01/17 05:54:02;;;;;;;;;;;3.40;99.90;;;;;;5074042;28;20244;-45
2022/01/17 05:56:27;;;;;;;;;;;3.40;99.90;;;;;;5074230;28;20046;-45
2022/01/17 05:58:53;;;;;;;;;;;3.40;99.90;;;;;;5055681;28;20336;-42
2022/01/17 06:01:18;;;;;;;;;;;3.30;99.90;;;;;;5074015;28;19915;-44
2022/01/17 06:03:44;;;;;;;;;;;3.40;99.90;;;;;;5073652;28;19965;-46
2022/01/17 06:06:09;;;;;;;;;;;3.40;99.90;;;;;;5073965;28;20346;-46
2022/01/17 06:08:35;;;;;;;;;;;3.40;99.90;;;;;;5073206;28;19965;-47
2022/01/17 06:11:01;;;;;;;;;;;3.40;99.90;;;;;;5073821;28;19912;-43
2022/01/17 06:13:26;;;;;;;;;;;3.40;99.90;;;;;;5073442;28;20289;-44
2022/01/17 06:15:52;;;;;;;;;;;3.40;99.90;;;;;;5073307;28;19909;-47
2022/01/17 06:18:17;;;;;;;;;;;3.40;99.90;;;;;;5055248;28;19912;-46
2022/01/17 06:20:43;;;;;;;;;;;3.50;99.90;;;;;;5073506;28;20020;-47
2022/01/17 06:23:08;;;;;;;;;;;3.50;99.90;;;;;;5073047;28;20346;-45
2022/01/17 06:25:34;;;;;;;;;;;3.50;99.90;;;;;;5073240;28;20408;-45
2022/01/17 06:27:59;;;;;;;;;;;3.40;99.90;;;;;;5073442;28;20244;-45
2022/01/17 06:30:25;;;;;;;;;;;3.40;99.90;;;;;;5072833;28;19936;-44
2022/01/17 06:32:50;;;;;;;;;;;3.40;99.90;;;;;;5073171;28;19936;-43
2022/01/17 06:35:16;;;;;;;;;;;3.50;99.90;;;;;;5072905;28;19913;-44
2022/01/17 06:37:44;;;;;;;;;;;3.50;99.90;;;;;;5073291;28;19909;-46
2022/01/17 06:40:10;;;;;;;;;;;3.60;99.90;;;;;;5072587;28;19909;-44
2022/01/17 06:42:36;;;;;;;;;;;3.60;99.90;;;;;;5072751;28;19984;-46
2022/01/17 06:45:04;;;;;;;;;;;3.60;99.90;;;;;;5072967;28;20239;-47
2022/01/17 06:47:36;;;;;;;;;;;3.60;99.90;;;;;;5072621;28;19916;-45
2022/01/17 06:50:04;;;;;;;;;;;3.60;99.90;;;;;;5072582;28;19919;-47
2022/01/17 06:52:30;;;;;;;;;;;3.70;99.90;;;;;;5055033;28;20382;-45
2022/01/17 06:54:56;;;;;;;;;;;3.70;99.90;;;;;;5072777;28;19908;-46
2022/01/17 06:57:23;;;;;;;;;;;3.60;99.90;;;;;;5074361;28;19908;-46
2022/01/17 06:59:49;;;;;;;;;;;3.70;99.90;;;;;;5076673;28;19908;-47
2022/01/17 07:02:14;;;;;;;;;;;3.70;99.90;;;;;;5076870;28;19996;-46
2022/01/17 07:04:40;;;;;;;;;;;3.80;99.90;;;;;;5076500;28;20398;-45
2022/01/17 07:07:05;;;;;;;;;;;3.80;99.90;;;;;;5076862;28;19954;-45
2022/01/17 07:09:31;;;;;;;;;;;3.80;99.90;;;;;;5076330;28;19920;-44
2022/01/17 07:12:00;;;;;;;;;;;3.70;99.90;;;;;;5076775;28;19939;-45
2022/01/17 07:14:26;;;;;;;;;;;3.70;99.90;;;;;;5076607;28;19908;-49
2022/01/17 07:16:52;;;;;;;;;;;3.70;99.90;;;;;;5058500;28;19908;-43
2022/01/17 07:19:17;;;;;;;;;;;3.70;99.90;;;;;;5076528;28;19908;-44
2022/01/17 07:21:43;;;;;;;;;;;3.80;99.90;;;;;;5076056;28;20313;-46
2022/01/17 07:24:09;;;;;;;;;;;3.80;99.90;;;;;;5076013;28;19920;-46
2022/01/17 07:26:34;;;;;;;;;;;3.80;99.90;;;;;;5076576;28;19915;-45
2022/01/17 07:29:00;;;;;;;;;;;3.80;99.90;;;;;;5075300;28;19938;-47
2022/01/17 07:31:26;;;;;;;;;;;3.90;99.90;;;;;;5076130;28;19913;-48
2022/01/17 07:33:51;;;;;;;;;;;4.00;99.90;;;;;;5070042;28;20339;-44
2022/01/17 07:36:19;;;;;;;;;;;4.00;99.90;;;;;;5056228;28;20374;-44
2022/01/17 07:38:46;;;;;;;;;;;3.90;99.90;;;;;;5055553;28;19908;-43
2022/01/17 07:41:11;;;;;;;;;;;3.90;99.90;;;;;;5055993;28;19908;-45
2022/01/17 07:43:38;;;;;;;;;;;4.00;99.90;;;;;;5060077;28;20376;-46
2022/01/17 07:46:06;;;;;;;;;;;4.10;99.90;;;;;;5075391;28;19913;-44
2022/01/17 07:48:55;;;;;;;;;;;4.10;99.90;;;;;;5056247;28;19909;-46
2022/01/17 07:51:19;;;;;;;;;;;4.10;99.90;;;;;;5064710;28;19916;-45
2022/01/17 07:53:44;;;;;;;;;;;4.10;99.90;;;;;;5076189;28;19909;-46
2022/01/17 07:56:10;;;;;;;;;;;4.10;99.90;;;;;;5073054;28;19939;-44
2022/01/17 07:58:35;;;;;;;;;;;4.10;99.90;;;;;;5055381;28;19947;-42
2022/01/17 08:01:01;;;;;;;;;;;4.10;99.90;;;;;;5064343;28;20285;-43
2022/01/17 08:03:26;;;;;;;;;;;4.00;99.90;;;;;;5075790;28;19951;-42
2022/01/17 08:05:52;;;;;;;;;;;4.10;99.90;;;;;;5066571;28;19923;-45
2022/01/17 08:08:17;;;;;;;;;;;4.00;99.90;;;;;;5060736;28;19940;-43
2022/01/17 08:10:43;;;;;;;;;;;3.90;99.90;;;;;;5055860;28;20361;-42
2022/01/17 08:13:09;;;;;;;;;;;4.00;99.90;;;;;;5055365;28;19920;-43
2022/01/17 08:15:37;;;;;;;;;;;4.10;99.90;;;;;;5055695;28;20011;-44
2022/01/17 08:18:03;;;;;;;;;;;4.00;99.90;;;;;;5055730;28;19908;-45
2022/01/17 08:20:30;;;;;;;;;;;4.00;99.90;;;;;;5055225;28;19962;-44
2022/01/17 08:22:59;;;;;;;;;;;4.00;99.90;;;;;;5055194;28;20442;-42
2022/01/17 08:25:24;;;;;;;;;;;4.10;99.90;;;;;;5060530;28;19920;-42
2022/01/17 08:27:50;;;;;;;;;;;4.20;99.90;;;;;;5037309;28;19909;-45
2022/01/17 08:30:16;;;;;;;;;;;4.10;99.90;;;;;;5048297;28;19917;-43
2022/01/17 08:32:41;;;;;;;;;;;4.10;99.90;;;;;;5075453;28;19936;-42
2022/01/17 08:35:07;;;;;;;;;;;4.20;99.90;;;;;;5075186;28;20392;-42
2022/01/17 08:37:33;;;;;;;;;;;4.20;99.90;;;;;;5074575;28;19912;-41
2022/01/17 08:39:59;;;;;;;;;;;4.20;99.90;;;;;;5075099;28;19919;-41
2022/01/17 08:42:25;;;;;;;;;;;4.20;99.90;;;;;;5074572;28;20404;-43
2022/01/17 08:44:51;;;;;;;;;;;4.20;99.90;;;;;;5074691;28;19965;-41
2022/01/17 08:47:17;;;;;;;;;;;4.20;99.90;;;;;;5072992;28;19924;-45
2022/01/17 08:49:43;;;;;;;;;;;4.30;99.90;;;;;;5068669;28;20370;-43
2022/01/17 08:52:09;;;;;;;;;;;4.40;99.90;;;;;;5073923;28;19923;-43
2022/01/17 08:54:35;;;;;;;;;;;4.40;99.90;;;;;;5073821;28;19920;-41
2022/01/17 08:57:00;;;;;;;;;;;4.50;99.90;;;;;;5073544;28;20369;-43
2022/01/17 08:59:28;;;;;;;;;;;4.60;99.90;;;;;;5068880;28;19916;-45
2022/01/17 09:01:54;;;;;;;;;;;4.60;99.90;;;;;;5054863;28;19920;-44
2022/01/17 09:04:19;;;;;;;;;;;4.50;99.90;;;;;;5054429;28;20266;-43
2022/01/17 09:06:46;;;;;;;;;;;4.60;99.90;;;;;;5062758;28;19909;-43
2022/01/17 09:09:11;;;;;;;;;;;4.60;99.90;;;;;;5068583;28;20472;-43
2022/01/17 09:11:37;;;;;;;;;;;4.50;99.90;;;;;;5067942;28;20003;-47
2022/01/17 09:14:02;;;;;;;;;;;4.60;99.90;;;;;;5037180;28;19909;-42
2022/01/17 09:16:28;;;;;;;;;;;4.60;99.90;;;;;;5053571;28;19908;-44
2022/01/17 09:18:53;;;;;;;;;;;4.70;99.90;;;;;;5054866;28;20377;-44
2022/01/17 09:21:19;;;;;;;;;;;4.80;99.90;;;;;;5052981;28;19967;-46
2022/01/17 09:23:44;;;;;;;;;;;4.90;99.90;;;;;;5053516;28;19925;-44
2022/01/17 09:26:10;;;;;;;;;;;4.90;99.90;;;;;;5071934;28;19913;-43
2022/01/17 09:28:35;;;;;;;;;;;5.00;99.90;;;;;;5073606;28;19916;-44
2022/01/17 09:31:01;;;;;;;;;;;5.00;99.90;;;;;;5054928;28;20298;-44
2022/01/17 09:33:27;;;;;;;;;;;5.10;99.90;;;;;;5074015;28;19916;-45
2022/01/17 09:35:53;;;;;;;;;;;5.00;99.90;;;;;;5072991;28;20374;-42
2022/01/17 09:38:18;;;;;;;;;;;5.10;99.90;;;;;;5073588;28;19913;-43
2022/01/17 09:40:44;;;;;;;;;;;5.00;99.90;;;;;;5072575;28;19912;-44
2022/01/17 09:43:09;;;;;;;;;;;5.00;99.90;;;;;;5073384;28;20327;-44
2022/01/17 09:45:35;;;;;;;;;;;5.30;99.90;;;;;;5072271;28;19916;-42
2022/01/17 09:48:02;;;;;;;;;;;5.20;99.90;;;;;;5072375;28;19974;-42
2022/01/17 09:50:34;;;;;;;;;;;5.20;99.90;;;;;;5073271;28;20004;-44
2022/01/17 09:53:01;;;;;;;;;;;5.30;99.90;;;;;;5072809;28;19966;-43
2022/01/17 09:55:27;;;;;;;;;;;5.40;99.90;;;;;;5073040;28;20312;-43
2022/01/17 09:57:54;;;;;;;;;;;5.40;99.90;;;;;;5072750;28;19955;-45
2022/01/17 10:00:24;;;;;;;;;;;5.20;99.90;;;;;;5073396;28;19909;-44
2022/01/17 10:02:50;;;;;;;;;;;5.30;99.90;;;;;;5072685;28;19919;-43
2022/01/17 10:05:16;;;;;;;;;;;5.40;99.90;;;;;;5073378;28;19920;-44
2022/01/17 10:07:51;;;;;;;;;;;5.40;99.90;;;;;;5073084;28;19913;-44
2022/01/17 10:10:16;;;;;;;;;;;5.60;99.90;;;;;;5072800;28;20011;-42
2022/01/17 10:12:42;;;;;;;;;;;5.60;99.90;;;;;;5073141;28;20387;-43
2022/01/17 10:15:12;;;;;;;;;;;5.70;99.90;;;;;;5072247;28;19912;-44
2022/01/17 10:17:56;;;;;;;;;;;5.60;99.90;;;;;;5072841;28;19913;-43
2022/01/17 10:20:22;;;;;;;;;;;5.50;99.90;;;;;;5072161;28;19975;-45
2022/01/17 10:23:09;;;;;;;;;;;5.60;99.90;;;;;;5054804;28;19959;-42
2022/01/17 10:28:59;;;;;;;;;;;5.70;99.90;;;;;;5073358;28;19917;-45
2022/01/17 10:34:52;;;;;;;;;;;5.70;99.90;;;;;;5071114;28;20382;-43
2022/01/17 10:36:47;;;;;;;;;;;5.80;99.90;;;;;;5076634;28;19965;-44
2022/01/17 10:39:14;;;;;;;;;;;5.90;99.90;;;;;;5076335;28;20279;-43
2022/01/17 10:41:39;;;;;;;;;;;5.90;99.90;;;;;;5075919;28;19922;-43
2022/01/17 10:44:05;;;;;;;;;;;5.80;99.90;;;;;;5075816;28;19912;-43
2022/01/17 10:46:31;;;;;;;;;;;5.80;99.90;;;;;;5058416;28;19935;-43
2022/01/17 10:48:57;;;;;;;;;;;5.70;99.90;;;;;;5076590;28;19916;-45
2022/01/17 10:51:32;;;;;;;;;;;5.80;99.90;;;;;;5076641;28;20260;-45
2022/01/17 10:53:58;;;;;;;;;;;5.70;99.90;;;;;;5076724;28;20240;-42
2022/01/17 10:56:24;;;;;;;;;;;5.60;99.90;;;;;;5076930;28;19909;-43
2022/01/17 10:59:00;;;;;;;;;;;5.60;99.90;;;;;;5075548;28;19935;-44
2022/01/17 11:01:25;;;;;;;;;;;5.70;99.90;;;;;;5076525;28;19913;-44
2022/01/17 11:03:57;;;;;;;;;;;5.80;99.90;;;;;;5076593;28;20311;-43
2022/01/17 11:06:23;;;;;;;;;;;5.60;99.90;;;;;;5076299;28;20294;-43
2022/01/17 11:08:50;;;;;;;;;;;5.70;99.90;;;;;;5075694;28;19912;-42
2022/01/17 11:11:21;;;;;;;;;;;5.60;99.90;;;;;;5075810;28;20275;-44
2022/01/17 11:13:49;;;;;;;;;;;5.60;99.90;;;;;;5076212;28;19927;-45
2022/01/17 11:16:14;;;;;;;;;;;5.60;99.90;;;;;;5075484;28;20248;-43
2022/01/17 11:18:43;;;;;;;;;;;5.60;99.90;;;;;;5076254;28;19908;-44
2022/01/17 11:21:13;;;;;;;;;;;5.70;99.90;;;;;;5076301;28;19920;-43
2022/01/17 11:23:41;;;;;;;;;;;5.70;99.90;;;;;;5075995;28;19947;-43
2022/01/17 11:26:07;;;;;;;;;;;5.80;99.90;;;;;;5076286;28;19931;-44
2022/01/17 11:28:34;;;;;;;;;;;5.80;99.90;;;;;;5075049;28;20275;-42
2022/01/17 11:31:01;;;;;;;;;;;5.60;99.90;;;;;;5075969;28;19912;-44
2022/01/17 11:33:27;;;;;;;;;;;5.60;99.90;;;;;;5065413;28;19917;-43
2022/01/17 11:35:52;;;;;;;;;;;5.60;99.90;;;;;;5060845;28;19936;-45
2022/01/17 11:38:27;;;;;;;;;;;5.70;99.90;;;;;;5067419;28;19948;-45
2022/01/17 11:40:53;;;;;;;;;;;5.60;99.90;;;;;;5055216;28;19960;-44
2022/01/17 11:43:33;;;;;;;;;;;5.70;99.90;;;;;;5057505;28;19984;-46
2022/01/17 11:46:00;;;;;;;;;;;5.70;99.90;;;;;;5055266;28;19996;-44
2022/01/17 11:48:32;;;;;;;;;;;5.90;99.90;;;;;;5037485;28;19909;-44
2022/01/17 11:51:14;;;;;;;;;;;5.80;99.90;;;;;;5069860;28;20007;-45
2022/01/17 11:53:41;;;;;;;;;;;6.30;99.90;;;;;;5073809;28;19920;-47
2022/01/17 11:56:07;;;;;;;;;;;6.20;99.90;;;;;;5055202;28;19913;-44
2022/01/17 11:58:43;;;;;;;;;;;6.30;99.90;;;;;;5054781;28;20271;-46
2022/01/17 12:01:10;;;;;;;;;;;6.30;99.90;;;;;;5055154;28;19909;-44
2022/01/17 12:03:40;;;;;;;;;;;6.30;99.90;;;;;;5057889;28;19948;-46
2022/01/17 12:06:18;;;;;;;;;;;6.20;99.90;;;;;;5073385;28;19909;-43
2022/01/17 12:08:44;;;;;;;;;;;6.00;99.90;;;;;;5073191;28;19908;-44
2022/01/17 12:11:23;;;;;;;;;;;6.00;99.90;;;;;;5072810;28;19927;-45
2022/01/17 12:13:49;;;;;;;;;;;5.90;99.90;;;;;;5073611;28;20003;-45
2022/01/17 12:16:36;;;;;;;;;;;5.80;99.90;;;;;;5072919;28;19974;-44
2022/01/17 12:19:05;;;;;;;;;;;5.80;99.90;;;;;;5073024;28;19928;-44
2022/01/17 12:21:41;;;;;;;;;;;5.70;99.90;;;;;;5063602;28;19969;-46
2022/01/17 12:24:25;;;;;;;;;;;5.80;99.90;;;;;;5039057;28;19925;-45
2022/01/17 12:26:54;;;;;;;;;;;5.90;99.90;;;;;;5062572;28;19909;-44
2022/01/17 12:29:38;;;;;;;;;;;6.00;99.90;;;;;;5035184;28;20362;-44
2022/01/17 12:32:05;;;;;;;;;;;6.00;99.90;;;;;;5070641;28;19908;-42
2022/01/17 12:34:38;;;;;;;;;;;6.10;99.90;;;;;;5072717;28;19912;-46
2022/01/17 12:37:23;;;;;;;;;;;6.00;99.90;;;;;;5073047;28;19931;-45
2022/01/17 12:39:51;;;;;;;;;;;6.00;99.90;;;;;;5058538;28;20000;-45
2022/01/17 12:42:16;;;;;;;;;;;5.90;99.90;;;;;;5053971;28;19971;-44
2022/01/17 12:44:45;;;;;;;;;;;5.90;99.90;;;;;;5059096;28;19917;-45
2022/01/17 12:47:10;;;;;;;;;;;5.90;99.90;;;;;;5057467;28;19916;-47
2022/01/17 12:49:36;;;;;;;;;;;5.80;99.90;;;;;;5059083;28;19925;-45
2022/01/17 12:52:02;;;;;;;;;;;6.10;99.90;;;;;;5042693;28;20313;-44
2022/01/17 12:54:29;;;;;;;;;;;6.10;99.90;;;;;;5063181;28;19915;-44
2022/01/17 12:56:55;;;;;;;;;;;6.30;99.90;;;;;;5074530;28;19912;-44
2022/01/17 12:59:22;;;;;;;;;;;6.20;99.90;;;;;;5073158;28;19908;-45
2022/01/17 13:01:49;;;;;;;;;;;6.10;99.90;;;;;;5074577;28;20311;-43
2022/01/17 13:04:16;;;;;;;;;;;6.10;99.90;;;;;;5074278;28;20335;-47
2022/01/17 13:06:43;;;;;;;;;;;6.10;99.90;;;;;;5074203;28;20370;-44
2022/01/17 13:09:13;;;;;;;;;;;6.20;99.90;;;;;;5074586;28;19908;-47
2022/01/17 13:11:40;;;;;;;;;;;6.50;99.90;;;;;;5074405;28;19909;-45
2022/01/17 13:14:06;;;;;;;;;;;6.60;99.90;;;;;;5074315;28;19912;-44
2022/01/17 13:16:34;;;;;;;;;;;6.40;99.90;;;;;;5073870;28;19961;-45
2022/01/17 13:19:00;;;;;;;;;;;6.40;99.90;;;;;;5074103;28;19908;-43
2022/01/17 13:21:25;;;;;;;;;;;6.50;99.90;;;;;;5074087;28;20366;-45
2022/01/17 13:23:59;;;;;;;;;;;6.60;99.90;;;;;;5074120;28;19925;-44
2022/01/17 13:26:33;;;;;;;;;;;6.50;99.90;;;;;;5057975;28;20368;-46
2022/01/17 13:29:00;;;;;;;;;;;6.50;99.90;;;;;;5070875;28;19913;-44
2022/01/17 13:31:26;;;;;;;;;;;6.60;99.90;;;;;;5065895;28;19920;-44
2022/01/17 13:33:52;;;;;;;;;;;6.50;99.90;;;;;;5060884;28;20001;-44
2022/01/17 13:36:23;;;;;;;;;;;6.50;99.90;;;;;;5054670;28;19936;-45
2022/01/17 13:38:58;;;;;;;;;;;6.60;99.90;;;;;;5053306;28;20371;-48
2022/01/17 13:41:28;;;;;;;;;;;6.70;99.90;;;;;;5066566;28;19996;-46
2022/01/17 13:43:53;;;;;;;;;;;6.70;99.90;;;;;;5069036;28;19955;-44
2022/01/17 13:46:19;;;;;;;;;;;6.70;99.90;;;;;;5058170;28;19909;-44
2022/01/17 13:48:46;;;;;;;;;;;6.50;99.90;;;;;;5055279;28;19979;-43
2022/01/17 13:51:11;;;;;;;;;;;6.50;99.90;;;;;;5065309;28;20355;-46
2022/01/17 13:53:37;;;;;;;;;;;6.30;99.90;;;;;;5057281;28;19966;-47
2022/01/17 13:56:03;;;;;;;;;;;6.30;99.90;;;;;;5035472;28;20020;-44
2022/01/17 13:58:30;;;;;;;;;;;6.30;99.90;;;;;;5063570;28;20398;-46
2022/01/17 14:00:58;;;;;;;;;;;6.20;99.90;;;;;;5065781;28;19947;-45
2022/01/17 14:03:25;;;;;;;;;;;6.00;99.90;;;;;;5063017;28;19909;-43
2022/01/17 14:05:52;;;;;;;;;;;6.00;99.90;;;;;;5053713;28;19917;-44
2022/01/17 14:08:21;;;;;;;;;;;5.90;99.90;;;;;;5052348;28;19905;-46
2022/01/17 14:10:58;;;;;;;;;;;5.80;99.90;;;;;;5067681;28;19952;-46
2022/01/17 14:13:32;;;;;;;;;;;5.80;99.90;;;;;;5071428;28;19926;-46
2022/01/17 14:16:10;;;;;;;;;;;5.80;99.90;;;;;;5071410;28;19947;-46
2022/01/17 14:18:39;;;;;;;;;;;5.70;99.90;;;;;;5071038;28;20331;-44
2022/01/17 14:21:05;;;;;;;;;;;5.70;99.90;;;;;;5063428;28;19904;-44
2022/01/17 14:23:32;;;;;;;;;;;5.60;99.90;;;;;;5052099;28;20335;-43
2022/01/17 14:25:58;;;;;;;;;;;5.70;99.90;;;;;;5034160;28;19905;-45
2022/01/17 14:28:24;;;;;;;;;;;5.60;99.90;;;;;;5052496;28;20000;-45
2022/01/17 14:30:50;;;;;;;;;;;5.60;99.90;;;;;;5052148;28;19913;-43
2022/01/17 14:33:17;;;;;;;;;;;5.60;99.90;;;;;;5068266;28;20026;-43
2022/01/17 14:36:01;;;;;;;;;;;5.60;99.90;;;;;;5075193;28;19908;-44
2022/01/17 14:38:27;;;;;;;;;;;5.60;99.90;;;;;;5050860;28;19919;-44
2022/01/17 14:40:53;;;;;;;;;;;5.50;99.90;;;;;;5081724;28;20275;-45
2022/01/17 14:43:19;;;;;;;;;;;5.60;99.90;;;;;;5075947;28;19999;-46
2022/01/17 14:45:50;;;;;;;;;;;5.70;99.90;;;;;;5084493;28;20263;-45
2022/01/17 14:48:17;;;;;;;;;;;5.60;99.90;;;;;;5079256;28;19920;-45
2022/01/17 14:50:43;;;;;;;;;;;5.60;99.90;;;;;;5078681;28;19935;-43
2022/01/17 14:53:15;;;;;;;;;;;5.50;99.90;;;;;;5078081;28;19908;-45